createdAt,value
2022-12-12T00:00:14.842Z,4.764
2022-12-12T00:01:13.830Z,4.764
2022-12-12T00:02:13.717Z,4.784
2022-12-12T00:03:13.947Z,4.789
2022-12-12T00:04:13.832Z,4.800
2022-12-12T00:05:14.656Z,4.809
2022-12-12T00:06:14.140Z,4.809
2022-12-12T00:07:13.657Z,4.810
2022-12-12T00:08:14.263Z,4.827
2022-12-12T00:09:13.543Z,4.828
2022-12-12T00:10:14.376Z,4.815
2022-12-12T00:11:13.984Z,4.833
2022-12-12T00:12:13.244Z,4.839
2022-12-12T00:13:13.407Z,4.795
2022-12-12T00:14:13.550Z,4.795
2022-12-12T00:15:14.900Z,4.784
2022-12-12T00:16:13.102Z,4.789
2022-12-12T00:17:13.874Z,4.75
2022-12-12T00:18:13.630Z,4.755
2022-12-12T00:19:13.201Z,4.75
2022-12-12T00:20:13.569Z,4.75
2022-12-12T00:21:14.767Z,4.755
2022-12-12T00:22:14.715Z,4.744
2022-12-12T00:23:13.859Z,4.755
2022-12-12T00:24:14.658Z,4.744
2022-12-12T00:25:13.529Z,4.724
2022-12-12T00:26:13.444Z,4.699
2022-12-12T00:27:14.265Z,4.699
2022-12-12T00:28:12.962Z,4.689
2022-12-12T00:29:13.650Z,4.689
2022-12-12T00:30:14.197Z,4.715
2022-12-12T00:31:13.329Z,4.715
2022-12-12T00:32:13.579Z,4.690
2022-12-12T00:33:13.117Z,4.710
2022-12-12T00:34:13.162Z,4.719
2022-12-12T00:35:14.488Z,4.715
2022-12-12T00:36:13.985Z,4.724
2022-12-12T00:37:13.508Z,4.719
2022-12-12T00:38:14.311Z,4.730
2022-12-12T00:39:18.157Z,4.75
2022-12-12T00:40:14.065Z,4.730
2022-12-12T00:41:13.347Z,4.715
2022-12-12T00:42:13.182Z,4.699
2022-12-12T00:43:13.325Z,4.719
2022-12-12T00:44:13.446Z,4.715
2022-12-12T00:45:14.330Z,4.689
2022-12-12T00:46:13.498Z,4.697
2022-12-12T00:47:14.225Z,4.684
2022-12-12T00:48:13.379Z,4.632
2022-12-12T00:49:13.862Z,4.636
2022-12-12T00:50:13.244Z,4.620
2022-12-12T00:51:13.231Z,4.625
2022-12-12T00:52:13.157Z,4.576
2022-12-12T00:53:13.080Z,4.570
2022-12-12T00:54:12.976Z,4.572
2022-12-12T00:55:13.142Z,4.570
2022-12-12T00:56:12.919Z,4.559
2022-12-12T00:57:13.567Z,4.574
2022-12-12T00:58:13.822Z,4.570
2022-12-12T00:59:14.085Z,4.559
2022-12-12T01:00:14.080Z,4.554
2022-12-12T01:01:15.029Z,4.554
2022-12-12T01:02:18.303Z,4.514
2022-12-12T01:03:13.196Z,4.5
2022-12-12T01:04:13.230Z,4.510
2022-12-12T01:05:14.610Z,4.525
2022-12-12T01:06:14.292Z,4.525
2022-12-12T01:07:13.640Z,4.489
2022-12-12T01:08:14.299Z,4.494
2022-12-12T01:09:14.313Z,4.489
2022-12-12T01:10:13.681Z,4.485
2022-12-12T01:11:13.797Z,4.449
2022-12-12T01:12:14.265Z,4.465
2022-12-12T01:13:13.326Z,4.454
2022-12-12T01:14:13.556Z,4.465
2022-12-12T01:15:14.857Z,4.449
2022-12-12T01:16:13.630Z,4.434
2022-12-12T01:17:14.053Z,4.389
2022-12-12T01:18:13.435Z,4.349
2022-12-12T01:19:13.992Z,4.284
2022-12-12T01:20:14.397Z,4.25
2022-12-12T01:21:14.368Z,4.210
2022-12-12T01:22:12.890Z,4.177
2022-12-12T01:23:13.345Z,4.210
2022-12-12T01:24:13.159Z,4.149
2022-12-12T01:25:13.833Z,4.149
2022-12-12T01:26:13.927Z,4.116
2022-12-12T01:27:13.799Z,4.085
2022-12-12T01:28:13.670Z,4.094
2022-12-12T01:29:13.695Z,4.089
2022-12-12T01:30:14.163Z,4.070
2022-12-12T01:31:13.331Z,4.089
2022-12-12T01:32:13.408Z,4.085
2022-12-12T01:33:13.457Z,4.090
2022-12-12T01:34:13.588Z,4.070
2022-12-12T01:35:14.715Z,4.065
2022-12-12T01:36:13.640Z,4.070
2022-12-12T01:37:13.403Z,4.070
2022-12-12T01:38:13.894Z,4.019
2022-12-12T01:39:14.170Z,4.005
2022-12-12T01:40:14.002Z,3.990
2022-12-12T01:41:14.177Z,3.984
2022-12-12T01:42:13.225Z,3.984
2022-12-12T01:43:13.297Z,3.984
2022-12-12T01:44:14.055Z,4.019
2022-12-12T01:45:13.445Z,4
2022-12-12T01:46:13.762Z,4.010
2022-12-12T01:47:14.581Z,4.034
2022-12-12T01:48:13.723Z,4.025
2022-12-12T01:49:13.906Z,3.994
2022-12-12T01:50:13.415Z,3.984
2022-12-12T01:51:13.501Z,4.010
2022-12-12T01:52:13.930Z,4.050
2022-12-12T01:53:13.328Z,4.030
2022-12-12T01:54:13.283Z,4.054
2022-12-12T01:55:14.271Z,4.025
2022-12-12T01:56:13.863Z,4.039
2022-12-12T01:57:13.617Z,4.045
2022-12-12T01:58:13.829Z,4.039
2022-12-12T01:59:13.983Z,4.054
2022-12-12T02:00:14.924Z,4.050
2022-12-12T02:01:13.757Z,4.059
2022-12-12T02:02:13.597Z,4.079
2022-12-12T02:03:13.859Z,4.065
2022-12-12T02:04:14.685Z,4.090
2022-12-12T02:05:14.462Z,4.114
2022-12-12T02:06:14.016Z,4.105
2022-12-12T02:07:13.195Z,4.114
2022-12-12T02:08:13.477Z,4.120
2022-12-12T02:09:13.636Z,4.114
2022-12-12T02:10:14.480Z,4.125
2022-12-12T02:11:13.706Z,4.125
2022-12-12T02:12:14.189Z,4.137
2022-12-12T02:13:13.558Z,4.164
2022-12-12T02:14:13.820Z,4.145
2022-12-12T02:15:14.626Z,4.157
2022-12-12T02:16:14.169Z,4.149
2022-12-12T02:17:13.706Z,4.146
2022-12-12T02:18:13.413Z,4.132
2022-12-12T02:19:13.706Z,4.131
2022-12-12T02:20:14.032Z,4.136
2022-12-12T02:21:14.468Z,4.138
2022-12-12T02:22:13.886Z,4.149
2022-12-12T02:23:14.099Z,4.143
2022-12-12T02:24:13.713Z,4.155
2022-12-12T02:25:14.293Z,4.155
2022-12-12T02:26:14.546Z,4.120
2022-12-12T02:27:13.981Z,4.122
2022-12-12T02:28:13.379Z,4.094
2022-12-12T02:29:13.670Z,4.099
2022-12-12T02:30:14.415Z,4.094
2022-12-12T02:31:13.722Z,4.070
2022-12-12T02:32:14.123Z,4.079
2022-12-12T02:33:13.505Z,4.099
2022-12-12T02:34:13.921Z,4.079
2022-12-12T02:35:13.607Z,4.065
2022-12-12T02:36:13.002Z,4.039
2022-12-12T02:37:13.521Z,4.030
2022-12-12T02:38:13.947Z,4.025
2022-12-12T02:39:13.494Z,4.010
2022-12-12T02:40:13.928Z,3.980
2022-12-12T02:41:13.231Z,3.950
2022-12-12T02:42:13.410Z,3.910
2022-12-12T02:43:14.024Z,3.872
2022-12-12T02:44:14.054Z,3.832
2022-12-12T02:45:14.007Z,3.789
2022-12-12T02:46:14.206Z,3.815
2022-12-12T02:47:13.988Z,3.815
2022-12-12T02:48:13.735Z,3.769
2022-12-12T02:49:14.033Z,3.720
2022-12-12T02:50:13.836Z,3.740
2022-12-12T02:51:13.689Z,3.704
2022-12-12T02:52:13.827Z,3.698
2022-12-12T02:53:13.098Z,3.660
2022-12-12T02:54:13.956Z,3.555
2022-12-12T02:55:13.882Z,3.569
2022-12-12T02:56:13.994Z,3.605
2022-12-12T02:57:13.390Z,3.565
2022-12-12T02:58:14.270Z,3.545
2022-12-12T02:59:13.833Z,3.539
2022-12-12T03:00:14.769Z,3.525
2022-12-12T03:01:14.171Z,3.484
2022-12-12T03:02:14.064Z,3.464
2022-12-12T03:03:13.389Z,3.454
2022-12-12T03:04:13.887Z,3.414
2022-12-12T03:05:13.636Z,3.414
2022-12-12T03:06:14.145Z,3.390
2022-12-12T03:07:13.825Z,3.345
2022-12-12T03:08:13.518Z,3.394
2022-12-12T03:09:14.515Z,3.382
2022-12-12T03:10:13.728Z,3.345
2022-12-12T03:11:14.569Z,3.269
2022-12-12T03:12:14.324Z,3.25
2022-12-12T03:13:14.324Z,3.255
2022-12-12T03:14:13.970Z,3.259
2022-12-12T03:15:14.822Z,3.275
2022-12-12T03:16:13.749Z,3.259
2022-12-12T03:17:13.624Z,3.234
2022-12-12T03:18:14.282Z,3.25
2022-12-12T03:19:13.795Z,3.25
2022-12-12T03:20:13.851Z,3.255
2022-12-12T03:21:13.736Z,3.220
2022-12-12T03:22:13.328Z,3.194
2022-12-12T03:23:13.337Z,3.213
2022-12-12T03:24:13.605Z,3.184
2022-12-12T03:25:14.927Z,3.194
2022-12-12T03:26:13.626Z,3.194
2022-12-12T03:27:19.230Z,3.165
2022-12-12T03:28:13.641Z,3.160
2022-12-12T03:29:13.773Z,3.137
2022-12-12T03:30:14.900Z,3.131
2022-12-12T03:31:13.267Z,3.160
2022-12-12T03:32:13.285Z,3.171
2022-12-12T03:33:13.937Z,3.154
2022-12-12T03:34:13.604Z,3.144
2022-12-12T03:35:13.922Z,3.154
2022-12-12T03:36:13.520Z,3.165
2022-12-12T03:37:14.176Z,3.164
2022-12-12T03:38:13.380Z,3.179
2022-12-12T03:39:13.917Z,3.151
2022-12-12T03:40:13.529Z,3.150
2022-12-12T03:41:14.169Z,3.141
2022-12-12T03:42:13.379Z,3.177
2022-12-12T03:43:13.857Z,3.184
2022-12-12T03:44:14.050Z,3.171
2022-12-12T03:45:13.571Z,3.160
2022-12-12T03:46:14.553Z,3.165
2022-12-12T03:47:14.445Z,3.178
2022-12-12T03:48:13.733Z,3.178
2022-12-12T03:49:14.256Z,3.184
2022-12-12T03:50:13.940Z,3.148
2022-12-12T03:51:13.428Z,3.142
2022-12-12T03:52:14.417Z,3.165
2022-12-12T03:53:13.726Z,3.131
2022-12-12T03:54:13.403Z,3.119
2022-12-12T03:55:15.139Z,3.109
2022-12-12T03:56:13.971Z,3.125
2022-12-12T03:57:13.580Z,3.109
2022-12-12T03:58:13.724Z,3.105
2022-12-12T03:59:14.266Z,3.120
2022-12-12T04:00:14.859Z,3.125
2022-12-12T04:01:14.055Z,3.095
2022-12-12T04:02:14.337Z,3.099
2022-12-12T04:03:13.361Z,3.099
2022-12-12T04:04:13.939Z,3.079
2022-12-12T04:05:14.877Z,3.049
2022-12-12T04:06:13.601Z,3.065
2022-12-12T04:07:14.127Z,3.055
2022-12-12T04:08:13.855Z,3.069
2022-12-12T04:09:13.603Z,3.055
2022-12-12T04:10:14.017Z,3.069
2022-12-12T04:11:13.284Z,3.075
2022-12-12T04:12:13.971Z,3.065
2022-12-12T04:13:13.419Z,3.075
2022-12-12T04:14:14.070Z,3.079
2022-12-12T04:15:14.401Z,3.059
2022-12-12T04:16:14.022Z,3.055
2022-12-12T04:17:13.839Z,3.085
2022-12-12T04:18:13.999Z,3.099
2022-12-12T04:19:13.354Z,3.075
2022-12-12T04:20:13.660Z,3.059
2022-12-12T04:21:13.769Z,3.069
2022-12-12T04:22:18.132Z,3.079
2022-12-12T04:23:13.754Z,3.075
2022-12-12T04:24:13.281Z,3.069
2022-12-12T04:25:13.973Z,3.069
2022-12-12T04:26:13.077Z,3.055
2022-12-12T04:27:13.943Z,3.055
2022-12-12T04:28:13.671Z,3.045
2022-12-12T04:29:13.385Z,3.075
2022-12-12T04:30:14.093Z,3.049
2022-12-12T04:31:13.282Z,3.055
2022-12-12T04:32:13.906Z,3.069
2022-12-12T04:33:13.885Z,3.065
2022-12-12T04:34:13.781Z,3.049
2022-12-12T04:35:14.351Z,3.065
2022-12-12T04:36:13.959Z,3.069
2022-12-12T04:37:13.821Z,3.069
2022-12-12T04:38:13.432Z,3.085
2022-12-12T04:39:14.487Z,3.099
2022-12-12T04:40:14.402Z,3.115
2022-12-12T04:41:13.996Z,3.115
2022-12-12T04:42:13.771Z,3.125
2022-12-12T04:43:13.380Z,3.144
2022-12-12T04:44:13.565Z,3.144
2022-12-12T04:45:14.464Z,3.148
2022-12-12T04:46:14.018Z,3.131
2022-12-12T04:47:13.460Z,3.160
2022-12-12T04:48:13.640Z,3.184
2022-12-12T04:49:13.681Z,3.154
2022-12-12T04:50:13.385Z,3.154
2022-12-12T04:51:13.768Z,3.171
2022-12-12T04:52:13.535Z,3.178
2022-12-12T04:53:18.342Z,3.154
2022-12-12T04:54:13.610Z,3.165
2022-12-12T04:55:14.531Z,3.171
2022-12-12T04:56:13.530Z,3.171
2022-12-12T04:57:14.018Z,3.165
2022-12-12T04:58:13.405Z,3.171
2022-12-12T04:59:14.059Z,3.160
2022-12-12T05:00:14.512Z,3.148
2022-12-12T05:01:13.873Z,3.151
2022-12-12T05:02:13.881Z,3.163
2022-12-12T05:03:13.656Z,3.171
2022-12-12T05:04:13.340Z,3.157
2022-12-12T05:05:14.543Z,3.151
2022-12-12T05:06:14.356Z,3.157
2022-12-12T05:07:14.592Z,3.154
2022-12-12T05:08:14.331Z,3.179
2022-12-12T05:09:14.008Z,3.170
2022-12-12T05:10:14.327Z,3.178
2022-12-12T05:11:14.435Z,3.148
2022-12-12T05:12:14.636Z,3.165
2022-12-12T05:13:14.199Z,3.142
2022-12-12T05:14:14.154Z,3.131
2022-12-12T05:15:14.692Z,3.137
2022-12-12T05:16:13.487Z,3.160
2022-12-12T05:17:14.644Z,3.171
2022-12-12T05:18:14.014Z,3.148
2022-12-12T05:19:13.857Z,3.171
2022-12-12T05:20:13.706Z,3.154
2022-12-12T05:21:13.716Z,3.137
2022-12-12T05:22:13.588Z,3.160
2022-12-12T05:23:13.529Z,3.137
2022-12-12T05:24:14.126Z,3.142
2022-12-12T05:25:14.194Z,3.125
2022-12-12T05:26:14.323Z,3.137
2022-12-12T05:27:13.908Z,3.137
2022-12-12T05:28:13.765Z,3.131
2022-12-12T05:29:13.445Z,3.131
2022-12-12T05:30:14.200Z,3.119
2022-12-12T05:32:14.072Z,3.137
2022-12-12T05:33:13.294Z,3.131
2022-12-12T05:34:13.791Z,3.178
2022-12-12T05:35:14.356Z,3.178
2022-12-12T05:36:14.171Z,3.184
2022-12-12T05:37:14.248Z,3.171
2022-12-12T05:38:14.084Z,3.165
2022-12-12T05:39:13.930Z,3.137
2022-12-12T05:40:14.329Z,3.137
2022-12-12T05:41:13.604Z,3.125
2022-12-12T05:42:13.514Z,3.111
2022-12-12T05:43:13.383Z,3.103
2022-12-12T05:44:13.808Z,3.089
2022-12-12T05:45:14.682Z,3.079
2022-12-12T05:46:13.792Z,3.065
2022-12-12T05:47:13.570Z,3.059
2022-12-12T05:48:16.450Z,3.039
2022-12-12T05:49:14.534Z,3.035
2022-12-12T05:50:14.611Z,3.029
2022-12-12T05:51:14.328Z,3.009
2022-12-12T05:52:18.949Z,2.984
2022-12-12T05:53:13.754Z,2.984
2022-12-12T05:54:14.339Z,2.974
2022-12-12T05:55:14.448Z,2.950
2022-12-12T05:56:14.256Z,2.950
2022-12-12T05:57:14.296Z,2.960
2022-12-12T05:58:13.909Z,2.954
2022-12-12T05:59:13.998Z,2.914
2022-12-12T06:00:14.739Z,2.880
2022-12-12T06:01:14.133Z,2.826
2022-12-12T06:02:14.186Z,2.845
2022-12-12T06:03:13.533Z,2.805
2022-12-12T06:04:14.026Z,2.785
2022-12-12T06:05:14.680Z,2.759
2022-12-12T06:06:13.745Z,2.740
2022-12-12T06:07:13.782Z,2.734
2022-12-12T06:08:13.839Z,2.684
2022-12-12T06:09:13.957Z,2.664
2022-12-12T06:10:14.543Z,2.631
2022-12-12T06:11:14.527Z,2.553
2022-12-12T06:12:14.112Z,2.509
2022-12-12T06:13:14.130Z,2.525
2022-12-12T06:14:14.268Z,2.509
2022-12-12T06:15:14.507Z,2.515
2022-12-12T06:16:14.227Z,2.545
2022-12-12T06:17:14.361Z,2.559
2022-12-12T06:18:14.251Z,2.599
2022-12-12T06:19:14.242Z,2.595
2022-12-12T06:20:14.781Z,2.615
2022-12-12T06:21:14.226Z,2.631
2022-12-12T06:22:13.997Z,2.609
2022-12-12T06:23:13.727Z,2.620
2022-12-12T06:24:13.228Z,2.625
2022-12-12T06:25:14.546Z,2.648
2022-12-12T06:26:33.424Z,2.651
2022-12-12T06:27:14.943Z,2.700
2022-12-12T06:28:14.300Z,2.716
2022-12-12T06:29:14.476Z,2.728
2022-12-12T06:30:14.223Z,2.734
2022-12-12T06:31:14.351Z,2.726
2022-12-12T06:32:14.554Z,2.711
2022-12-12T06:33:14.200Z,2.714
2022-12-12T06:34:14.273Z,2.698
2022-12-12T06:35:14.589Z,2.684
2022-12-12T06:36:13.657Z,2.689
2022-12-12T06:37:17.368Z,2.644
2022-12-12T06:38:13.656Z,2.625
2022-12-12T06:39:13.816Z,2.620
2022-12-12T06:40:13.532Z,2.631
2022-12-12T06:41:13.635Z,2.654
2022-12-12T06:42:14.468Z,2.621
2022-12-12T06:43:14.050Z,2.637
2022-12-12T06:45:13.701Z,2.599
2022-12-12T06:46:13.583Z,2.599
2022-12-12T06:47:14.597Z,2.615
2022-12-12T06:48:14.220Z,2.620
2022-12-12T06:49:13.496Z,2.609
2022-12-12T06:50:13.895Z,2.609
2022-12-12T06:51:13.412Z,2.615
2022-12-12T06:52:14.182Z,2.599
2022-12-12T06:53:14.191Z,2.595
2022-12-12T06:54:14.063Z,2.609
2022-12-12T06:55:13.976Z,2.595
2022-12-12T06:56:13.292Z,2.569
2022-12-12T06:57:13.522Z,2.545
2022-12-12T06:58:13.699Z,2.539
2022-12-12T06:59:13.836Z,2.555
2022-12-12T07:00:15.096Z,2.565
2022-12-12T07:01:14.220Z,2.539
2022-12-12T07:02:13.964Z,2.509
2022-12-12T07:03:14.254Z,2.505
2022-12-12T07:04:14.386Z,2.529
2022-12-12T07:05:14.621Z,2.474
2022-12-12T07:06:14.290Z,2.454
2022-12-12T07:07:13.761Z,2.484
2022-12-12T07:08:14.603Z,2.5
2022-12-12T07:09:14.119Z,2.490
2022-12-12T07:10:13.368Z,2.484
2022-12-12T07:11:14.126Z,2.505
2022-12-12T07:12:14.003Z,2.490
2022-12-12T07:13:13.867Z,2.509
2022-12-12T07:14:14.100Z,2.529
2022-12-12T07:15:13.891Z,2.515
2022-12-12T07:16:13.594Z,2.525
2022-12-12T07:17:14.760Z,2.505
2022-12-12T07:18:15.017Z,2.515
2022-12-12T07:19:13.771Z,2.5
2022-12-12T07:20:13.495Z,2.539
2022-12-12T07:21:13.895Z,2.559
2022-12-12T07:22:13.534Z,2.529
2022-12-12T07:23:14.739Z,2.595
2022-12-12T07:24:14.619Z,2.599
2022-12-12T07:25:14.686Z,2.609
2022-12-12T07:26:13.282Z,2.609
2022-12-12T07:27:19.986Z,2.615
2022-12-12T07:28:14.690Z,2.660
2022-12-12T07:29:14.485Z,2.671
2022-12-12T07:30:14.480Z,2.654
2022-12-12T07:31:14.514Z,2.683
2022-12-12T07:32:15.911Z,2.724
2022-12-12T07:33:14.533Z,2.730
2022-12-12T07:34:13.697Z,2.710
2022-12-12T07:35:14.487Z,2.730
2022-12-12T07:36:14.678Z,2.769
2022-12-12T07:37:14.039Z,2.769
2022-12-12T07:38:14.274Z,2.799
2022-12-12T07:39:17.326Z,2.832
2022-12-12T07:40:13.934Z,2.845
2022-12-12T07:41:14.111Z,2.884
2022-12-12T07:42:14.127Z,2.930
2022-12-12T07:43:13.906Z,2.944
2022-12-12T07:44:14.275Z,2.950
2022-12-12T07:45:18.241Z,2.970
2022-12-12T07:46:13.916Z,3.009
2022-12-12T07:47:13.747Z,3.032
2022-12-12T07:48:14.297Z,3.069
2022-12-12T07:49:13.990Z,3.089
2022-12-12T07:50:14.040Z,3.098
2022-12-12T07:51:14.192Z,3.101
2022-12-12T07:52:13.871Z,3.092
2022-12-12T07:53:13.585Z,3.095
2022-12-12T07:54:14.141Z,3.101
2022-12-12T07:55:14.735Z,3.140
2022-12-12T07:56:14.269Z,3.154
2022-12-12T07:57:13.336Z,3.179
2022-12-12T07:58:14.719Z,3.170
2022-12-12T07:59:14.032Z,3.154
2022-12-12T08:00:15.353Z,3.137
2022-12-12T08:01:15.139Z,3.131
2022-12-12T08:02:14.804Z,3.131
2022-12-12T08:03:14.050Z,3.148
2022-12-12T08:04:14.402Z,3.165
2022-12-12T08:05:15.187Z,3.142
2022-12-12T08:06:14.267Z,3.137
2022-12-12T08:07:14.938Z,3.131
2022-12-12T08:08:14.163Z,3.142
2022-12-12T08:09:14.663Z,3.184
2022-12-12T08:10:16.233Z,3.171
2022-12-12T08:11:14.835Z,3.224
2022-12-12T08:12:14.364Z,3.244
2022-12-12T08:13:15.422Z,3.255
2022-12-12T08:14:13.523Z,3.279
2022-12-12T08:15:14.484Z,3.295
2022-12-12T08:16:13.637Z,3.326
2022-12-12T08:17:14.188Z,3.361
2022-12-12T08:18:14.003Z,3.349
2022-12-12T08:19:13.946Z,3.390
2022-12-12T08:20:14.733Z,3.410
2022-12-12T08:21:14.147Z,3.440
2022-12-12T08:22:14.178Z,3.470
2022-12-12T08:23:14.291Z,3.505
2022-12-12T08:24:14.818Z,3.545
2022-12-12T08:25:15.015Z,3.579
2022-12-12T08:26:13.868Z,3.599
2022-12-12T08:27:15.548Z,3.648
2022-12-12T08:28:13.818Z,3.677
2022-12-12T08:29:14.091Z,3.720
2022-12-12T08:30:14.208Z,3.765
2022-12-12T08:31:13.844Z,3.789
2022-12-12T08:32:13.927Z,3.821
2022-12-12T08:33:13.473Z,3.884
2022-12-12T08:34:14.162Z,3.904
2022-12-12T08:35:14.790Z,3.914
2022-12-12T08:36:13.478Z,3.954
2022-12-12T08:37:14.237Z,4
2022-12-12T08:38:14.174Z,4.025
2022-12-12T08:39:14.618Z,4.050
2022-12-12T08:40:14.759Z,4.070
2022-12-12T08:41:15.007Z,4.090
2022-12-12T08:42:14.301Z,4.138
2022-12-12T08:43:13.779Z,4.183
2022-12-12T08:44:14.430Z,4.190
2022-12-12T08:45:15.226Z,4.25
2022-12-12T08:46:17.471Z,4.275
2022-12-12T08:47:14.212Z,4.289
2022-12-12T08:48:14.103Z,4.327
2022-12-12T08:49:14.153Z,4.368
2022-12-12T08:50:14.294Z,4.373
2022-12-12T08:51:14.218Z,4.400
2022-12-12T08:52:13.591Z,4.425
2022-12-12T08:53:14.336Z,4.434
2022-12-12T08:54:13.644Z,4.469
2022-12-12T08:55:36.104Z,4.494
2022-12-12T08:56:13.594Z,4.525
2022-12-12T08:57:14.816Z,4.570
2022-12-12T08:58:13.942Z,4.570
2022-12-12T08:59:13.997Z,4.605
2022-12-12T09:00:14.497Z,4.625
2022-12-12T09:01:14.532Z,4.647
2022-12-12T09:02:13.716Z,4.683
2022-12-12T09:03:13.822Z,4.704
2022-12-12T09:04:14.581Z,4.75
2022-12-12T09:05:14.948Z,4.760
2022-12-12T09:06:14.249Z,4.789
2022-12-12T09:07:14.494Z,4.827
2022-12-12T09:08:13.766Z,4.855
2022-12-12T09:09:14.203Z,4.861
2022-12-12T09:10:14.748Z,4.877
2022-12-12T09:11:14.487Z,4.909
2022-12-12T09:12:14.823Z,4.905
2022-12-12T09:13:14.030Z,4.945
2022-12-12T09:14:14.271Z,5.010
2022-12-12T09:15:15.017Z,5.035
2022-12-12T09:16:14.735Z,5.070
2022-12-12T09:17:14.921Z,5.085
2022-12-12T09:18:14.227Z,5.130
2022-12-12T09:19:15.168Z,5.170
2022-12-12T09:20:14.166Z,5.204
2022-12-12T09:21:14.779Z,5.263
2022-12-12T09:22:13.764Z,5.293
2022-12-12T09:23:14.375Z,5.339
2022-12-12T09:24:15.190Z,5.383
2022-12-12T09:25:14.909Z,5.434
2022-12-12T09:26:14.203Z,5.480
2022-12-12T09:27:15.084Z,5.494
2022-12-12T09:28:14.628Z,5.554
2022-12-12T09:29:14.395Z,5.590
2022-12-12T09:30:14.689Z,5.638
2022-12-12T09:31:14.437Z,5.671
2022-12-12T09:32:13.874Z,5.724
2022-12-12T09:33:13.885Z,5.764
2022-12-12T09:34:14.545Z,5.784
2022-12-12T09:35:15.446Z,5.861
2022-12-12T09:36:14.062Z,5.909
2022-12-12T09:37:14.033Z,5.965
2022-12-12T09:38:15.188Z,5.969
2022-12-12T09:39:14.650Z,6.019
2022-12-12T09:40:14.678Z,6.070
2022-12-12T09:41:13.981Z,6.105
2022-12-12T09:42:13.941Z,6.149
2022-12-12T09:43:13.616Z,6.177
2022-12-12T09:44:13.645Z,6.224
2022-12-12T09:45:14.949Z,6.255
2022-12-12T09:46:14.025Z,6.260
2022-12-12T09:47:13.315Z,6.284
2022-12-12T09:48:14.299Z,6.334
2022-12-12T09:49:14.865Z,6.382
2022-12-12T09:50:14.534Z,6.429
2022-12-12T09:51:13.883Z,6.449
2022-12-12T09:52:13.710Z,6.5
2022-12-12T09:53:13.601Z,6.510
2022-12-12T09:54:14.601Z,6.514
2022-12-12T09:55:14.413Z,6.525
2022-12-12T09:56:13.855Z,6.530
2022-12-12T09:57:14.689Z,6.534
2022-12-12T09:58:13.729Z,6.559
2022-12-12T09:59:14.378Z,6.579
2022-12-12T10:00:14.979Z,6.614
2022-12-12T10:01:14.726Z,6.643
2022-12-12T10:02:14.501Z,6.659
2022-12-12T10:03:14.072Z,6.671
2022-12-12T10:04:14.533Z,6.715
2022-12-12T10:05:14.897Z,6.739
2022-12-12T10:06:36.589Z,6.784
2022-12-12T10:07:14.424Z,6.804
2022-12-12T10:08:14.871Z,6.839
2022-12-12T10:09:14.243Z,6.867
2022-12-12T10:10:13.797Z,6.881
2022-12-12T10:11:13.757Z,6.909
2022-12-12T10:12:14.281Z,6.925
2022-12-12T10:13:13.973Z,6.934
2022-12-12T10:14:13.939Z,6.925
2022-12-12T10:15:14.002Z,6.940
2022-12-12T10:16:13.899Z,6.965
2022-12-12T10:17:13.594Z,6.965
2022-12-12T10:18:14.316Z,7.005
2022-12-12T10:19:13.854Z,7.019
2022-12-12T10:20:14.094Z,7.050
2022-12-12T10:21:14.841Z,7.065
2022-12-12T10:22:15.157Z,7.110
2022-12-12T10:23:14.147Z,7.155
2022-12-12T10:24:14.366Z,7.182
2022-12-12T10:25:13.822Z,7.165
2022-12-12T10:26:14.260Z,7.190
2022-12-12T10:27:14.037Z,7.215
2022-12-12T10:28:13.120Z,7.199
2022-12-12T10:29:13.851Z,7.195
2022-12-12T10:30:14.438Z,7.275
2022-12-12T10:31:14.515Z,7.269
2022-12-12T10:32:14.807Z,7.255
2022-12-12T10:33:13.960Z,7.25
2022-12-12T10:34:14.325Z,7.239
2022-12-12T10:35:19.956Z,7.244
2022-12-12T10:36:14.001Z,7.235
2022-12-12T10:37:14.622Z,7.228
2022-12-12T10:38:14.359Z,7.240
2022-12-12T10:39:14.929Z,7.199
2022-12-12T10:40:14.447Z,7.200
2022-12-12T10:41:14.680Z,7.208
2022-12-12T10:42:14.171Z,7.183
2022-12-12T10:43:14.341Z,7.204
2022-12-12T10:44:15.018Z,7.192
2022-12-12T10:45:15.177Z,7.151
2022-12-12T10:46:14.682Z,7.179
2022-12-12T10:47:13.786Z,7.195
2022-12-12T10:48:13.875Z,7.149
2022-12-12T10:49:14.065Z,7.143
2022-12-12T10:50:14.993Z,7.171
2022-12-12T10:51:14.709Z,7.159
2022-12-12T10:52:13.854Z,7.189
2022-12-12T10:53:14.242Z,7.204
2022-12-12T10:54:13.385Z,7.224
2022-12-12T10:55:15.178Z,7.260
2022-12-12T10:56:13.924Z,7.280
2022-12-12T10:57:19.894Z,7.316
2022-12-12T10:58:14.376Z,7.361
2022-12-12T10:59:14.830Z,7.400
2022-12-12T11:00:15.214Z,7.374
2022-12-12T11:01:14.391Z,7.400
2022-12-12T11:02:29.116Z,7.400
2022-12-12T11:03:14.522Z,7.394
2022-12-12T11:04:15.221Z,7.425
2022-12-12T11:05:14.839Z,7.429
2022-12-12T11:06:28.302Z,7.414
2022-12-12T11:07:14.807Z,7.389
2022-12-12T11:08:13.681Z,7.394
2022-12-12T11:09:14.395Z,7.385
2022-12-12T11:10:14.629Z,7.373
2022-12-12T11:11:13.892Z,7.409
2022-12-12T11:12:14.631Z,7.420
2022-12-12T11:13:14.204Z,7.449
2022-12-12T11:14:14.181Z,7.469
2022-12-12T11:15:14.084Z,7.489
2022-12-12T11:16:13.968Z,7.5
2022-12-12T11:17:13.734Z,7.514
2022-12-12T11:18:14.381Z,7.550
2022-12-12T11:19:14.788Z,7.550
2022-12-12T11:20:14.436Z,7.539
2022-12-12T11:21:15.233Z,7.534
2022-12-12T11:22:15.092Z,7.554
2022-12-12T11:23:18.170Z,7.539
2022-12-12T11:24:14.290Z,7.550
2022-12-12T11:25:14.424Z,7.570
2022-12-12T11:26:14.465Z,7.550
2022-12-12T11:27:14.641Z,7.554
2022-12-12T11:28:14.623Z,7.570
2022-12-12T11:29:14.360Z,7.570
2022-12-12T11:30:14.377Z,7.590
2022-12-12T11:31:14.119Z,7.620
2022-12-12T11:32:13.752Z,7.649
2022-12-12T11:33:14.525Z,7.664
2022-12-12T11:34:14.323Z,7.683
2022-12-12T11:35:15.434Z,7.715
2022-12-12T11:36:14.328Z,7.703
2022-12-12T11:37:14.979Z,7.715
2022-12-12T11:38:14.427Z,7.735
2022-12-12T11:39:15.016Z,7.764
2022-12-12T11:40:14.200Z,7.800
2022-12-12T11:41:14.143Z,7.789
2022-12-12T11:42:13.882Z,7.822
2022-12-12T11:43:13.963Z,7.815
2022-12-12T11:44:19.914Z,7.795
2022-12-12T11:45:14.556Z,7.789
2022-12-12T11:46:14.385Z,7.764
2022-12-12T11:47:14.755Z,7.769
2022-12-12T11:48:14.629Z,7.769
2022-12-12T11:49:13.594Z,7.855
2022-12-12T11:50:14.232Z,7.831
2022-12-12T11:51:14.540Z,7.914
2022-12-12T11:52:14.305Z,7.833
2022-12-12T11:53:13.976Z,7.806
2022-12-12T11:54:12.976Z,7.769
2022-12-12T11:55:14.767Z,7.760
2022-12-12T11:56:13.933Z,7.769
2022-12-12T11:57:13.709Z,7.784
2022-12-12T11:58:14.215Z,7.784
2022-12-12T11:59:14.951Z,7.815
2022-12-12T12:00:16.492Z,7.889
2022-12-12T12:01:14.606Z,7.855
2022-12-12T12:02:14.261Z,7.780
2022-12-12T12:03:15.182Z,7.755
2022-12-12T12:04:14.611Z,7.703
2022-12-12T12:05:15.210Z,7.682
2022-12-12T12:06:15.086Z,7.695
2022-12-12T12:07:14.673Z,7.712
2022-12-12T12:08:14.306Z,7.711
2022-12-12T12:09:13.702Z,7.715
2022-12-12T12:10:14.528Z,7.719
2022-12-12T12:11:14.772Z,7.714
2022-12-12T12:12:14.423Z,7.689
2022-12-12T12:13:14.256Z,7.710
2022-12-12T12:14:14.634Z,7.730
2022-12-12T12:15:14.919Z,7.764
2022-12-12T12:16:14.414Z,7.828
2022-12-12T12:17:14.486Z,7.888
2022-12-12T12:18:14.446Z,7.874
2022-12-12T12:19:13.952Z,7.867
2022-12-12T12:20:14.565Z,7.900
2022-12-12T12:21:15.004Z,7.880
2022-12-12T12:22:15.189Z,7.885
2022-12-12T12:23:14.616Z,7.855
2022-12-12T12:24:14.190Z,7.855
2022-12-12T12:25:15.251Z,7.833
2022-12-12T12:26:14.875Z,7.800
2022-12-12T12:27:14.767Z,7.780
2022-12-12T12:28:14.087Z,7.760
2022-12-12T12:29:13.860Z,7.764
2022-12-12T12:30:14.864Z,7.780
2022-12-12T12:31:14.141Z,7.795
2022-12-12T12:32:15.319Z,7.810
2022-12-12T12:33:16.889Z,7.894
2022-12-12T12:34:17.951Z,7.929
2022-12-12T12:35:17.983Z,7.934
2022-12-12T12:36:20.687Z,7.954
2022-12-12T12:37:14.122Z,7.965
2022-12-12T12:38:14.017Z,7.889
2022-12-12T12:39:14.589Z,7.885
2022-12-12T12:40:14.799Z,7.885
2022-12-12T12:41:14.822Z,7.894
2022-12-12T12:42:14.917Z,7.900
2022-12-12T12:43:14.688Z,7.920
2022-12-12T12:44:14.427Z,7.974
2022-12-12T12:45:15.216Z,7.969
2022-12-12T12:46:13.994Z,7.980
2022-12-12T12:47:14.891Z,7.965
2022-12-12T12:48:14.222Z,8.015
2022-12-12T12:49:14.712Z,8.029
2022-12-12T12:50:14.807Z,8.050
2022-12-12T12:51:14.470Z,8.095
2022-12-12T12:52:13.995Z,8.085
2022-12-12T12:53:13.839Z,8.034
2022-12-12T12:54:14.459Z,8.015
2022-12-12T12:55:15.193Z,8.039